createdAt,value
2023-01-07T00:01:36.637Z,7.50
2023-01-07T00:04:06.298Z,7.50
2023-01-07T00:06:39.555Z,7.50
2023-01-07T00:09:16.644Z,7.50
2023-01-07T00:11:44.411Z,7.50
2023-01-07T00:14:13.685Z,7.50
2023-01-07T00:16:41.410Z,7.50
2023-01-07T00:19:12.871Z,7.50
2023-01-07T00:21:40.021Z,7.50
2023-01-07T00:24:07.833Z,7.50
2023-01-07T00:26:36.918Z,7.50
2023-01-07T00:29:05.140Z,7.50
2023-01-07T00:31:36.953Z,7.50
2023-01-07T00:34:04.426Z,7.50
2023-01-07T00:36:37.145Z,7.50
2023-01-07T00:39:16.381Z,7.50
2023-01-07T00:42:02.852Z,7.50
2023-01-07T00:44:30.238Z,7.50
2023-01-07T00:46:58.318Z,7.50
2023-01-07T00:49:26.120Z,7.50
2023-01-07T00:51:56.145Z,7.40
2023-01-07T00:54:23.211Z,7.40
2023-01-07T00:56:52.740Z,7.50
2023-01-07T00:59:19.758Z,7.40
2023-01-07T01:01:47.035Z,7.40
2023-01-07T01:04:17.185Z,7.40
2023-01-07T01:06:47.170Z,7.40
2023-01-07T01:09:14.292Z,7.40
2023-01-07T01:11:42.057Z,7.40
2023-01-07T01:14:10.754Z,7.40
2023-01-07T01:16:37.859Z,7.40
2023-01-07T01:19:07.401Z,7.40
2023-01-07T01:21:34.416Z,7.40
2023-01-07T01:24:01.466Z,7.30
2023-01-07T01:26:28.426Z,7.40
2023-01-07T01:28:55.465Z,7.30
2023-01-07T01:31:25.345Z,7.30
2023-01-07T01:33:56.551Z,7.30
2023-01-07T01:36:23.975Z,7.30
2023-01-07T01:38:51.025Z,7.30
2023-01-07T01:41:18.224Z,7.30
2023-01-07T01:43:45.761Z,7.30
2023-01-07T01:46:27.568Z,7.30
2023-01-07T01:49:04.159Z,7.30
2023-01-07T01:51:37.222Z,7.30
2023-01-07T01:54:09.244Z,7.20
2023-01-07T01:56:40.207Z,7.20
2023-01-07T01:59:11.914Z,7.20
2023-01-07T02:01:39.733Z,7.20
2023-01-07T02:04:13.139Z,7.20
2023-01-07T02:06:50.672Z,7.20
2023-01-07T02:09:17.720Z,7.20
2023-01-07T02:11:54.754Z,7.20
2023-01-07T02:14:21.686Z,7.20
2023-01-07T02:17:04.429Z,7.20
2023-01-07T02:20:08.648Z,7.20
2023-01-07T02:22:56.966Z,7.10
2023-01-07T02:26:09.056Z,7.10
2023-01-07T02:28:54.582Z,7.10
2023-01-07T02:31:41.360Z,7.10
2023-01-07T02:34:38.305Z,7.10
2023-01-07T02:37:36.043Z,7.10
2023-01-07T02:40:26.550Z,7.10
2023-01-07T02:42:59.569Z,7.10
2023-01-07T02:45:30.910Z,7.10
2023-01-07T02:48:08.767Z,7.10
2023-01-07T02:50:35.993Z,7.10
2023-01-07T02:53:03.104Z,7.10
2023-01-07T02:55:48.877Z,7.10
2023-01-07T02:58:34.691Z,7.10
2023-01-07T03:01:17.132Z,7.10
2023-01-07T03:04:02.403Z,7.10
2023-01-07T03:06:29.370Z,7.10
2023-01-07T03:09:05.020Z,7.00
2023-01-07T03:11:41.436Z,7.10
2023-01-07T03:14:20.956Z,7.10
2023-01-07T03:16:55.387Z,7.00
2023-01-07T03:19:30.519Z,7.00
2023-01-07T03:22:00.021Z,7.00
2023-01-07T03:24:31.236Z,7.00
2023-01-07T03:27:01.046Z,7.00
2023-01-07T03:29:29.168Z,7.00
2023-01-07T03:32:18.700Z,7.00
2023-01-07T03:34:46.169Z,7.00
2023-01-07T03:37:20.840Z,7.00
2023-01-07T03:39:48.416Z,7.00
2023-01-07T03:42:34.507Z,7.00
2023-01-07T03:45:01.752Z,7.00
2023-01-07T03:47:29.862Z,7.00
2023-01-07T03:49:56.855Z,7.00
2023-01-07T03:52:23.943Z,7.00
2023-01-07T03:54:50.965Z,7.00
2023-01-07T03:57:18.029Z,6.90
2023-01-07T03:59:45.027Z,7.00
2023-01-07T04:02:12.201Z,7.00
2023-01-07T04:04:39.395Z,7.00
2023-01-07T04:07:07.285Z,7.00
2023-01-07T04:09:34.438Z,7.00
2023-01-07T04:12:01.497Z,7.00
2023-01-07T04:14:28.537Z,7.00
2023-01-07T04:16:55.724Z,7.00
2023-01-07T04:19:22.828Z,7.00
2023-01-07T04:21:50.119Z,7.00
2023-01-07T04:24:17.166Z,7.00
2023-01-07T04:26:44.205Z,7.00
2023-01-07T04:29:11.789Z,7.00
2023-01-07T04:31:38.807Z,7.00
2023-01-07T04:34:09.335Z,7.00
2023-01-07T04:36:36.387Z,7.00
2023-01-07T04:39:03.636Z,7.00
2023-01-07T04:41:30.788Z,7.00
2023-01-07T04:43:57.787Z,7.00
2023-01-07T04:46:25.398Z,7.00
2023-01-07T04:48:52.449Z,7.00
2023-01-07T04:51:20.479Z,7.00
2023-01-07T04:53:48.110Z,7.00
2023-01-07T04:56:15.465Z,7.00
2023-01-07T04:58:42.476Z,7.00
2023-01-07T05:01:09.802Z,7.00
2023-01-07T05:03:37.371Z,7.00
2023-01-07T05:06:04.533Z,7.00
2023-01-07T05:08:31.613Z,7.00
2023-01-07T05:11:00.048Z,7.00
2023-01-07T05:13:28.523Z,7.00
2023-01-07T05:15:55.494Z,7.00
2023-01-07T05:18:22.589Z,7.00
2023-01-07T05:20:49.553Z,7.00
2023-01-07T05:23:16.613Z,7.00
2023-01-07T05:25:43.656Z,7.00
2023-01-07T05:28:12.177Z,7.00
2023-01-07T05:30:39.629Z,7.00
2023-01-07T05:33:07.481Z,7.00
2023-01-07T05:35:35.719Z,7.00
2023-01-07T05:38:02.946Z,7.00
2023-01-07T05:40:29.989Z,7.00
2023-01-07T05:42:57.231Z,7.00
2023-01-07T05:45:24.345Z,7.00
2023-01-07T05:47:51.382Z,7.00
2023-01-07T05:50:18.349Z,7.00
2023-01-07T05:52:45.426Z,7.00
2023-01-07T05:55:12.542Z,7.10
2023-01-07T05:57:39.578Z,7.10
2023-01-07T06:00:07.425Z,7.00
2023-01-07T06:02:34.532Z,7.10
2023-01-07T06:05:01.632Z,7.10
2023-01-07T06:07:28.686Z,7.00
2023-01-07T06:09:55.752Z,7.10
2023-01-07T06:12:22.887Z,7.10
2023-01-07T06:14:49.950Z,7.10
2023-01-07T06:17:16.997Z,7.10
2023-01-07T06:19:44.090Z,7.10
2023-01-07T06:22:11.144Z,7.10
2023-01-07T06:24:38.312Z,7.10
2023-01-07T06:27:05.391Z,7.10
2023-01-07T06:29:32.537Z,7.10
2023-01-07T06:31:59.663Z,7.20
2023-01-07T06:34:26.733Z,7.10
2023-01-07T06:36:53.754Z,7.20
2023-01-07T06:39:20.721Z,7.20
2023-01-07T06:41:47.770Z,7.20
2023-01-07T06:44:14.801Z,7.20
2023-01-07T06:46:41.953Z,7.20
2023-01-07T06:49:09.058Z,7.20
2023-01-07T06:51:36.229Z,7.20
2023-01-07T06:54:03.461Z,7.20
2023-01-07T06:56:30.675Z,7.20
2023-01-07T06:58:57.755Z,7.20
2023-01-07T07:01:30.578Z,7.20
2023-01-07T07:03:57.830Z,7.20
2023-01-07T07:06:24.866Z,7.20
2023-01-07T07:08:51.961Z,7.20
2023-01-07T07:11:22.247Z,7.20
2023-01-07T07:13:49.328Z,7.20
2023-01-07T07:16:16.424Z,7.20
2023-01-07T07:18:43.469Z,7.20
2023-01-07T07:21:10.719Z,7.20
2023-01-07T07:23:37.817Z,7.20
2023-01-07T07:26:05.262Z,7.30
2023-01-07T07:28:32.390Z,7.30
2023-01-07T07:30:59.559Z,7.30
2023-01-07T07:33:26.656Z,7.30
2023-01-07T07:35:55.098Z,7.30
2023-01-07T07:38:22.625Z,7.30
2023-01-07T07:40:49.693Z,7.30
2023-01-07T07:43:16.897Z,7.30
2023-01-07T07:45:44.244Z,7.30
2023-01-07T07:48:13.999Z,7.30
2023-01-07T07:50:41.490Z,7.40
2023-01-07T07:53:10.383Z,7.40
2023-01-07T07:55:38.689Z,7.40
2023-01-07T07:58:06.729Z,7.40
2023-01-07T08:00:33.799Z,7.50
2023-01-07T08:03:03.672Z,7.50
2023-01-07T08:05:31.665Z,7.50
2023-01-07T08:07:59.119Z,7.50
2023-01-07T08:10:28.102Z,7.50
2023-01-07T08:12:55.146Z,7.50
2023-01-07T08:15:22.221Z,7.50
2023-01-07T08:17:56.173Z,7.50
2023-01-07T08:20:23.207Z,7.50
2023-01-07T08:22:50.253Z,7.50
2023-01-07T08:25:17.375Z,7.50
2023-01-07T08:27:44.405Z,7.50
2023-01-07T08:30:14.567Z,7.50
2023-01-07T08:32:44.407Z,7.50
2023-01-07T08:35:12.036Z,7.50
2023-01-07T08:37:39.201Z,7.50
2023-01-07T08:40:07.058Z,7.50
2023-01-07T08:42:34.302Z,7.60
2023-01-07T08:45:01.435Z,7.50
2023-01-07T08:47:29.201Z,7.60
2023-01-07T08:49:56.366Z,7.60
2023-01-07T08:52:24.738Z,7.60
2023-01-07T08:54:52.370Z,7.60
2023-01-07T08:57:19.718Z,7.60
2023-01-07T08:59:46.920Z,7.60
2023-01-07T09:02:16.680Z,7.70
2023-01-07T09:04:44.327Z,7.70
2023-01-07T09:07:12.831Z,7.70
2023-01-07T09:09:44.032Z,7.70
2023-01-07T09:12:11.631Z,7.70
2023-01-07T09:14:38.823Z,7.70
2023-01-07T09:17:08.701Z,7.70
2023-01-07T09:19:35.744Z,7.70
2023-01-07T09:22:03.149Z,7.70
2023-01-07T09:24:30.248Z,7.70
2023-01-07T09:26:57.423Z,7.70
2023-01-07T09:29:24.470Z,7.80
2023-01-07T09:31:54.669Z,7.70
2023-01-07T09:34:21.862Z,7.80
2023-01-07T09:36:48.868Z,7.80
2023-01-07T09:39:17.792Z,7.70
2023-01-07T09:42:21.947Z,7.80
2023-01-07T09:44:54.135Z,7.80
2023-01-07T09:47:27.507Z,7.80
2023-01-07T09:50:00.141Z,7.80
2023-01-07T09:52:37.341Z,7.80
2023-01-07T09:55:30.233Z,7.80
2023-01-07T09:58:00.563Z,7.90
2023-01-07T10:00:29.866Z,7.80
2023-01-07T10:03:13.507Z,7.90
2023-01-07T10:05:47.679Z,7.80
2023-01-07T10:08:30.753Z,7.90
2023-01-07T10:11:22.800Z,7.90
2023-01-07T10:14:08.188Z,7.90
2023-01-07T10:16:50.468Z,7.90
2023-01-07T10:19:39.583Z,7.90
2023-01-07T10:22:37.593Z,7.90
2023-01-07T10:25:13.915Z,7.90
2023-01-07T10:27:46.407Z,7.90
2023-01-07T10:30:21.560Z,7.90
2023-01-07T10:32:52.613Z,7.90
2023-01-07T10:35:23.655Z,7.90
2023-01-07T10:37:51.293Z,8.00
2023-01-07T10:40:46.383Z,8.00
2023-01-07T10:43:52.520Z,8.00
2023-01-07T10:46:37.959Z,8.00
2023-01-07T10:49:20.673Z,8.00
2023-01-07T10:52:09.591Z,8.00
2023-01-07T10:54:45.432Z,8.00
2023-01-07T10:57:24.732Z,8.00
2023-01-07T11:00:05.088Z,8.00
2023-01-07T11:02:32.960Z,8.10
2023-01-07T11:05:00.691Z,8.10
2023-01-07T11:07:48.268Z,8.10
2023-01-07T11:10:24.469Z,8.10
2023-01-07T11:12:59.118Z,8.10
2023-01-07T11:15:57.258Z,8.10
2023-01-07T11:18:24.193Z,8.10
2023-01-07T11:20:52.436Z,8.10
2023-01-07T11:23:32.908Z,8.20
2023-01-07T11:26:14.960Z,8.20
2023-01-07T11:28:50.328Z,8.20
2023-01-07T11:31:18.027Z,8.20
2023-01-07T11:34:02.034Z,8.20
2023-01-07T11:36:41.780Z,8.20
2023-01-07T11:39:19.310Z,8.20
2023-01-07T11:42:33.519Z,8.20
2023-01-07T11:45:21.464Z,8.20
2023-01-07T11:48:02.882Z,8.20
2023-01-07T11:50:34.046Z,8.20
2023-01-07T11:53:21.411Z,8.20
2023-01-07T11:55:57.722Z,8.20
2023-01-07T11:58:28.010Z,8.20
2023-01-07T12:01:09.249Z,8.30
2023-01-07T12:03:39.673Z,8.30
2023-01-07T12:06:15.914Z,8.30
2023-01-07T12:08:55.093Z,8.30
2023-01-07T12:11:30.573Z,8.20
2023-01-07T12:14:06.079Z,8.20
2023-01-07T12:16:33.369Z,8.20
2023-01-07T12:19:20.700Z,8.20
2023-01-07T12:22:14.495Z,8.30
2023-01-07T12:25:10.649Z,8.30
2023-01-07T12:28:05.158Z,8.30
2023-01-07T12:30:58.255Z,8.30
2023-01-07T12:34:00.878Z,8.30
2023-01-07T12:36:39.211Z,8.30
2023-01-07T12:39:14.575Z,8.30
2023-01-07T12:41:45.924Z,8.30
2023-01-07T12:44:19.821Z,8.30
2023-01-07T12:47:32.219Z,8.30
2023-01-07T12:50:01.809Z,8.30
2023-01-07T12:52:28.793Z,8.30
2023-01-07T12:55:04.466Z,8.30
2023-01-07T12:57:35.686Z,8.30
2023-01-07T13:00:24.018Z,8.40
2023-01-07T13:02:59.532Z,8.40
2023-01-07T13:05:32.471Z,8.40
2023-01-07T13:08:28.409Z,8.40
2023-01-07T13:11:05.509Z,8.40
2023-01-07T13:13:40.672Z,8.40
2023-01-07T13:16:17.397Z,8.40
2023-01-07T13:18:44.716Z,8.40
2023-01-07T13:21:17.047Z,8.40
2023-01-07T13:23:50.656Z,8.50
2023-01-07T13:26:37.316Z,8.50
2023-01-07T13:29:13.301Z,8.40
2023-01-07T13:32:16.407Z,8.50
2023-01-07T13:35:02.768Z,8.50
2023-01-07T13:37:38.677Z,8.50
2023-01-07T13:40:30.775Z,8.50
2023-01-07T13:43:19.102Z,8.50
2023-01-07T13:46:12.221Z,8.50
2023-01-07T13:48:41.298Z,8.50
2023-01-07T13:51:10.424Z,8.50
2023-01-07T13:53:39.917Z,8.50
2023-01-07T13:56:18.939Z,8.50
2023-01-07T13:58:53.389Z,8.50
2023-01-07T14:01:21.787Z,8.50
2023-01-07T14:04:04.039Z,8.50
2023-01-07T14:06:44.853Z,8.50
2023-01-07T14:09:26.349Z,8.50
2023-01-07T14:12:11.696Z,8.50
2023-01-07T14:14:51.264Z,8.50
2023-01-07T14:17:35.545Z,8.50
2023-01-07T14:20:32.940Z,8.50
2023-01-07T14:23:09.083Z,8.50
2023-01-07T14:25:48.167Z,8.50
2023-01-07T14:28:30.243Z,8.50
2023-01-07T14:30:58.391Z,8.50
2023-01-07T14:33:29.262Z,8.50
2023-01-07T14:36:01.592Z,8.50
2023-01-07T14:38:31.747Z,8.50
2023-01-07T14:41:13.402Z,8.50
2023-01-07T14:43:43.612Z,8.50
2023-01-07T14:46:22.699Z,8.50
2023-01-07T14:49:01.785Z,8.50
2023-01-07T14:52:00.598Z,8.50
2023-01-07T14:54:33.174Z,8.50
2023-01-07T14:57:30.830Z,8.50
2023-01-07T15:00:11.140Z,8.60
2023-01-07T15:03:16.201Z,8.50
2023-01-07T15:06:18.273Z,8.50
2023-01-07T15:09:09.997Z,8.60
2023-01-07T15:11:58.879Z,8.50
2023-01-07T15:15:05.986Z,8.60
2023-01-07T15:17:33.511Z,8.50
2023-01-07T15:20:05.410Z,8.50
2023-01-07T15:22:56.559Z,8.50
2023-01-07T15:25:29.010Z,8.50
2023-01-07T15:28:07.869Z,8.50
2023-01-07T15:31:04.483Z,8.50
2023-01-07T15:34:08.959Z,8.50
2023-01-07T15:36:41.613Z,8.50
2023-01-07T15:39:18.304Z,8.50
2023-01-07T15:41:48.895Z,8.50
2023-01-07T15:44:25.044Z,8.50
2023-01-07T15:46:52.686Z,8.50
2023-01-07T15:49:23.245Z,8.50
2023-01-07T15:51:54.615Z,8.50
2023-01-07T15:54:35.296Z,8.60
2023-01-07T15:57:07.755Z,8.50
2023-01-07T15:59:38.783Z,8.50
2023-01-07T16:02:05.896Z,8.50
2023-01-07T16:04:37.161Z,8.50
2023-01-07T16:07:04.634Z,8.50
2023-01-07T16:09:34.173Z,8.50
2023-01-07T16:12:01.423Z,8.50
2023-01-07T16:14:35.408Z,8.50
2023-01-07T16:17:15.926Z,8.50
2023-01-07T16:19:43.259Z,8.50
2023-01-07T16:22:20.832Z,8.50
2023-01-07T16:24:52.915Z,8.50
2023-01-07T16:27:30.163Z,8.50
2023-01-07T16:29:59.480Z,8.50
2023-01-07T16:32:27.265Z,8.50
2023-01-07T16:35:26.433Z,8.50
2023-01-07T16:37:54.067Z,8.50
2023-01-07T16:40:31.210Z,8.50
2023-01-07T16:43:02.198Z,8.50
2023-01-07T16:45:42.136Z,8.50
2023-01-07T16:48:21.680Z,8.50
2023-01-07T16:50:50.102Z,8.50
2023-01-07T16:53:33.546Z,8.50
2023-01-07T16:56:14.406Z,8.50
2023-01-07T16:58:53.573Z,8.50
2023-01-07T17:01:33.841Z,8.50
2023-01-07T17:04:07.461Z,8.50
2023-01-07T17:06:41.275Z,8.50
2023-01-07T17:09:34.107Z,8.50
2023-01-07T17:12:01.386Z,8.40
2023-01-07T17:14:34.455Z,8.40
2023-01-07T17:17:23.818Z,8.40
2023-01-07T17:20:12.633Z,8.40
2023-01-07T17:22:40.378Z,8.40
2023-01-07T17:25:15.360Z,8.40
2023-01-07T17:27:50.746Z,8.40
2023-01-07T17:30:20.665Z,8.40
2023-01-07T17:32:50.957Z,8.30
2023-01-07T17:35:21.374Z,8.30
2023-01-07T17:37:49.306Z,8.30
2023-01-07T17:40:17.725Z,8.30
2023-01-07T17:43:05.831Z,8.30
2023-01-07T17:45:33.305Z,8.30
2023-01-07T17:48:01.586Z,8.30
2023-01-07T17:50:35.784Z,8.30
2023-01-07T17:53:03.010Z,8.30
2023-01-07T17:55:31.920Z,8.30
2023-01-07T17:57:59.051Z,8.30
2023-01-07T18:00:29.136Z,8.30
2023-01-07T18:02:57.727Z,8.30
2023-01-07T18:05:26.309Z,8.30
2023-01-07T18:07:53.971Z,8.30
2023-01-07T18:10:28.536Z,8.30
2023-01-07T18:12:55.541Z,8.30
2023-01-07T18:15:27.941Z,8.20
2023-01-07T18:17:54.905Z,8.20
2023-01-07T18:20:23.155Z,8.20
2023-01-07T18:22:51.221Z,8.20
2023-01-07T18:25:21.171Z,8.20
2023-01-07T18:27:52.703Z,8.20
2023-01-07T18:30:21.379Z,8.20
2023-01-07T18:32:49.561Z,8.20
2023-01-07T18:35:19.228Z,8.20
2023-01-07T18:37:50.877Z,8.20
2023-01-07T18:40:18.562Z,8.20
2023-01-07T18:42:45.609Z,8.20
2023-01-07T18:45:13.022Z,8.20
2023-01-07T18:47:40.278Z,8.20
2023-01-07T18:50:08.497Z,8.20
2023-01-07T18:52:41.446Z,8.10
2023-01-07T18:55:10.483Z,8.20
2023-01-07T18:57:37.667Z,8.10
2023-01-07T19:00:06.026Z,8.10
2023-01-07T19:02:33.088Z,8.10
2023-01-07T19:05:00.125Z,8.10
2023-01-07T19:07:29.342Z,8.10
2023-01-07T19:09:56.454Z,8.10
2023-01-07T19:12:26.106Z,8.10
2023-01-07T19:14:53.292Z,8.10
2023-01-07T19:17:20.419Z,8.10
2023-01-07T19:19:48.982Z,8.10
2023-01-07T19:22:16.699Z,8.10
2023-01-07T19:24:44.375Z,8.10
2023-01-07T19:27:11.993Z,8.10
2023-01-07T19:29:39.076Z,8.10
2023-01-07T19:32:06.175Z,8.10
2023-01-07T19:34:33.256Z,8.20
2023-01-07T19:37:00.471Z,8.30
2023-01-07T19:39:28.612Z,8.40
2023-01-07T19:41:55.662Z,8.50
2023-01-07T19:44:22.713Z,8.60
2023-01-07T19:46:49.746Z,8.60
2023-01-07T19:49:16.846Z,8.60
2023-01-07T19:51:44.499Z,8.70
2023-01-07T19:54:18.003Z,8.70
2023-01-07T19:56:45.337Z,8.70
2023-01-07T19:59:12.477Z,8.70
2023-01-07T20:01:39.818Z,8.80
2023-01-07T20:04:11.842Z,8.80
2023-01-07T20:06:39.041Z,8.80
2023-01-07T20:09:10.824Z,8.80
2023-01-07T20:11:43.316Z,8.80
2023-01-07T20:14:12.059Z,8.80
2023-01-07T20:16:41.679Z,8.80
2023-01-07T20:19:12.694Z,8.90
2023-01-07T20:21:40.173Z,8.90
2023-01-07T20:24:07.670Z,8.90
2023-01-07T20:26:35.564Z,8.90
2023-01-07T20:29:02.655Z,8.90
2023-01-07T20:31:31.142Z,8.90
2023-01-07T20:33:59.564Z,8.90
2023-01-07T20:36:30.121Z,8.90
2023-01-07T20:38:57.526Z,8.90
2023-01-07T20:41:27.076Z,8.90
2023-01-07T20:43:56.524Z,8.90
2023-01-07T20:46:25.319Z,8.90
2023-01-07T20:48:52.870Z,8.90
2023-01-07T20:51:21.051Z,8.90
2023-01-07T20:53:48.609Z,8.90
2023-01-07T20:56:21.198Z,8.90
2023-01-07T20:58:49.549Z,8.90
2023-01-07T21:01:20.232Z,8.90
2023-01-07T21:03:47.974Z,8.90
2023-01-07T21:06:20.026Z,8.90
2023-01-07T21:08:48.149Z,8.90
2023-01-07T21:11:18.160Z,8.90
2023-01-07T21:13:46.301Z,8.90
2023-01-07T21:16:14.196Z,8.90
2023-01-07T21:18:41.562Z,8.90
2023-01-07T21:21:14.723Z,8.90
2023-01-07T21:23:43.659Z,8.90
2023-01-07T21:26:12.907Z,8.90
2023-01-07T21:28:40.550Z,8.90
2023-01-07T21:31:11.292Z,8.80
2023-01-07T21:33:40.072Z,8.80
2023-01-07T21:36:16.308Z,8.80
2023-01-07T21:38:44.210Z,8.80
2023-01-07T21:41:16.863Z,8.80
2023-01-07T21:43:47.951Z,8.80
2023-01-07T21:46:16.199Z,8.80
2023-01-07T21:48:46.691Z,8.80
2023-01-07T21:51:25.925Z,8.80
2023-01-07T21:53:55.982Z,8.80
2023-01-07T21:56:25.054Z,8.80
2023-01-07T21:58:52.567Z,8.80
2023-01-07T22:01:20.313Z,8.80
2023-01-07T22:03:49.439Z,8.80
2023-01-07T22:06:31.840Z,8.80
2023-01-07T22:09:02.718Z,8.80
2023-01-07T22:11:32.741Z,8.80
2023-01-07T22:14:02.568Z,8.80
2023-01-07T22:16:32.022Z,8.80
2023-01-07T22:18:59.947Z,8.70
2023-01-07T22:21:27.377Z,8.70
2023-01-07T22:23:54.379Z,8.70
2023-01-07T22:26:21.955Z,8.70
2023-01-07T22:28:54.088Z,8.70
2023-01-07T22:31:30.425Z,8.70
2023-01-07T22:33:57.989Z,8.70
2023-01-07T22:36:32.780Z,8.70
2023-01-07T22:39:06.655Z,8.70
2023-01-07T22:41:34.610Z,8.70
2023-01-07T22:44:06.202Z,8.70
2023-01-07T22:46:34.301Z,8.70
2023-01-07T22:49:01.406Z,8.70
2023-01-07T22:51:31.905Z,8.70
2023-01-07T22:54:00.598Z,8.70
2023-01-07T22:56:28.138Z,8.60
2023-01-07T22:58:55.205Z,8.60
2023-01-07T23:01:22.282Z,8.60
2023-01-07T23:03:49.498Z,8.60
2023-01-07T23:06:16.950Z,8.60
2023-01-07T23:08:44.349Z,8.60
2023-01-07T23:11:11.483Z,8.60
2023-01-07T23:13:41.495Z,8.60
2023-01-07T23:16:08.714Z,8.60
2023-01-07T23:18:35.715Z,8.60
2023-01-07T23:21:04.985Z,8.60
2023-01-07T23:23:32.041Z,8.60
2023-01-07T23:25:59.052Z,8.60
2023-01-07T23:28:26.033Z,8.60
2023-01-07T23:30:53.107Z,8.60
2023-01-07T23:33:20.149Z,8.60
2023-01-07T23:35:47.218Z,8.60
2023-01-07T23:38:14.215Z,8.50
2023-01-07T23:40:41.227Z,8.50
2023-01-07T23:43:08.383Z,8.50
2023-01-07T23:45:35.374Z,8.50
2023-01-07T23:48:02.458Z,8.50
2023-01-07T23:50:29.417Z,8.50
2023-01-07T23:52:56.426Z,8.50
2023-01-07T23:55:23.566Z,8.50
2023-01-07T23:57:50.627Z,8.50
